createdAt,value
2023-05-14T00:01:54.061Z,56.56
2023-05-14T00:04:39.631Z,56.46
2023-05-14T00:07:31.895Z,55.45
2023-05-14T00:10:18.948Z,55.08
2023-05-14T00:13:04.495Z,54.81
2023-05-14T00:15:49.376Z,55.33
2023-05-14T00:18:34.646Z,55.13
2023-05-14T00:21:19.371Z,55.78
2023-05-14T00:24:04.670Z,55.32
2023-05-14T00:26:49.767Z,55.17
2023-05-14T00:29:35.017Z,55.76
2023-05-14T00:32:20.086Z,55.53
2023-05-14T00:35:05.660Z,55.59
2023-05-14T00:37:50.874Z,55.80
2023-05-14T00:40:36.306Z,55.08
2023-05-14T00:43:22.556Z,56.22
2023-05-14T00:46:07.850Z,55.77
2023-05-14T00:48:53.692Z,56.85
2023-05-14T00:51:42.354Z,56.21
2023-05-14T00:54:28.030Z,56.08
2023-05-14T00:57:13.363Z,58.52
2023-05-14T00:59:59.438Z,57.49
2023-05-14T01:02:44.654Z,56.47
2023-05-14T01:05:41.223Z,56.74
2023-05-14T01:08:32.793Z,57.28
2023-05-14T01:11:24.613Z,57.06
2023-05-14T01:14:42.195Z,57.79
2023-05-14T01:17:30.322Z,57.70
2023-05-14T01:20:16.210Z,57.50
2023-05-14T01:23:01.599Z,57.69
2023-05-14T01:25:46.636Z,56.19
2023-05-14T01:28:36.622Z,57.03
2023-05-14T01:31:27.822Z,56.16
2023-05-14T01:34:14.563Z,55.80
2023-05-14T01:37:00.572Z,56.87
2023-05-14T01:39:46.789Z,56.28
2023-05-14T01:42:32.208Z,56.08
2023-05-14T01:45:20.304Z,56.63
2023-05-14T01:48:05.769Z,56.70
2023-05-14T01:50:51.346Z,56.07
2023-05-14T01:53:36.256Z,57.63
2023-05-14T01:56:23.653Z,56.76
2023-05-14T01:59:08.497Z,57.94
2023-05-14T02:01:53.509Z,58.35
2023-05-14T02:04:38.522Z,61.69
2023-05-14T02:07:23.422Z,57.97
2023-05-14T02:10:09.290Z,57.72
2023-05-14T02:12:54.465Z,57.89
2023-05-14T02:15:39.670Z,57.23
2023-05-14T02:18:25.766Z,56.95
2023-05-14T02:21:10.887Z,58.35
2023-05-14T02:23:56.269Z,57.40
2023-05-14T02:26:42.075Z,57.71
2023-05-14T02:29:27.783Z,56.60
2023-05-14T02:32:13.147Z,57.40
2023-05-14T02:34:58.572Z,56.82
2023-05-14T02:37:43.421Z,56.27
2023-05-14T02:40:28.466Z,56.39
2023-05-14T02:43:13.296Z,56.53
2023-05-14T02:45:58.208Z,57.17
2023-05-14T02:48:43.160Z,57.13
2023-05-14T02:51:28.516Z,57.47
2023-05-14T02:54:13.342Z,57.77
2023-05-14T02:56:58.173Z,58.30
2023-05-14T02:59:42.953Z,58.20
2023-05-14T03:02:28.294Z,58.57
2023-05-14T03:05:14.249Z,56.93
2023-05-14T03:08:00.840Z,58.01
2023-05-14T03:10:45.873Z,56.93
2023-05-14T03:13:31.028Z,56.62
2023-05-14T03:16:15.914Z,57.30
2023-05-14T03:19:00.825Z,56.84
2023-05-14T03:21:46.171Z,58.25
2023-05-14T03:24:31.617Z,57.51
2023-05-14T03:27:16.988Z,56.80
2023-05-14T03:30:03.130Z,56.89
2023-05-14T03:32:48.053Z,57.13
2023-05-14T03:35:33.141Z,56.70
2023-05-14T03:38:18.072Z,56.64
2023-05-14T03:41:03.393Z,56.47
2023-05-14T03:43:48.317Z,56.49
2023-05-14T03:46:33.204Z,57.01
2023-05-14T03:49:18.980Z,56.46
2023-05-14T03:52:04.070Z,56.20
2023-05-14T03:54:49.223Z,57.44
2023-05-14T03:57:34.226Z,56.80
2023-05-14T04:00:19.302Z,55.87
2023-05-14T04:03:04.430Z,56.83
2023-05-14T04:05:51.152Z,56.37
2023-05-14T04:08:36.024Z,56.94
2023-05-14T04:11:22.436Z,56.99
2023-05-14T04:14:07.667Z,57.88
2023-05-14T04:16:52.788Z,57.47
2023-05-14T04:19:37.884Z,57.52
2023-05-14T04:22:23.481Z,56.64
2023-05-14T04:25:08.595Z,56.83
2023-05-14T04:27:54.255Z,56.51
2023-05-14T04:30:39.234Z,56.79
2023-05-14T04:33:24.409Z,56.79
2023-05-14T04:36:09.306Z,56.73
2023-05-14T04:38:54.195Z,56.81
2023-05-14T04:41:39.029Z,56.37
2023-05-14T04:44:23.904Z,56.57
2023-05-14T04:47:08.731Z,57.69
2023-05-14T04:49:53.518Z,58.31
2023-05-14T04:52:39.182Z,57.86
2023-05-14T04:55:24.295Z,57.37
2023-05-14T04:58:09.285Z,57.38
2023-05-14T05:00:54.192Z,57.16
2023-05-14T05:03:39.219Z,57.52
2023-05-14T05:06:24.041Z,57.31
2023-05-14T05:09:09.791Z,57.95
2023-05-14T05:11:54.874Z,57.41
2023-05-14T05:14:39.750Z,57.34
2023-05-14T05:17:25.300Z,57.19
2023-05-14T05:20:11.046Z,57.54
2023-05-14T05:22:56.257Z,56.64
2023-05-14T05:25:41.132Z,57.49
2023-05-14T05:28:26.163Z,57.18
2023-05-14T05:31:11.380Z,57.48
2023-05-14T05:33:57.672Z,57.07
2023-05-14T05:36:42.757Z,57.42
2023-05-14T05:39:27.560Z,56.71
2023-05-14T05:42:12.266Z,56.44
2023-05-14T05:44:57.331Z,56.37
2023-05-14T05:47:42.968Z,57.21
2023-05-14T05:50:27.766Z,57.04
2023-05-14T05:53:12.993Z,56.62
2023-05-14T05:55:57.849Z,56.17
2023-05-14T05:58:42.640Z,56.18
2023-05-14T06:01:27.551Z,56.59
2023-05-14T06:04:13.045Z,57.92
2023-05-14T06:06:58.325Z,56.75
2023-05-14T06:09:43.607Z,56.34
2023-05-14T06:12:28.467Z,58.09
2023-05-14T06:15:13.352Z,60.21
2023-05-14T06:17:58.371Z,60.24
2023-05-14T06:20:43.144Z,61.62
2023-05-14T06:23:28.353Z,62.13
2023-05-14T06:26:13.190Z,62.85
2023-05-14T06:28:58.442Z,62.79
2023-05-14T06:31:43.548Z,61.95
2023-05-14T06:34:28.591Z,60.82
2023-05-14T06:37:13.414Z,62.56
2023-05-14T06:39:58.944Z,62.07
2023-05-14T06:42:44.152Z,60.55
2023-05-14T06:45:32.435Z,60.18
2023-05-14T06:48:19.363Z,59.36
2023-05-14T06:51:04.963Z,57.67
2023-05-14T06:53:50.234Z,55.34
2023-05-14T06:56:35.352Z,57.34
2023-05-14T06:59:21.865Z,54.27
2023-05-14T07:02:07.240Z,52.67
2023-05-14T07:04:52.429Z,54.54
2023-05-14T07:07:37.641Z,52.46
2023-05-14T07:10:22.952Z,51.98
2023-05-14T07:13:08.493Z,50.68
2023-05-14T07:15:55.923Z,52.01
2023-05-14T07:18:41.474Z,51.78
2023-05-14T07:21:26.317Z,48.08
2023-05-14T07:24:11.086Z,48.71
2023-05-14T07:26:57.183Z,48.36
2023-05-14T07:29:42.890Z,46.18
2023-05-14T07:32:28.148Z,46.18
2023-05-14T07:35:14.325Z,45.92
2023-05-14T07:37:59.602Z,46.40
2023-05-14T07:40:45.338Z,46.53
2023-05-14T07:43:30.113Z,45.15
2023-05-14T07:46:15.110Z,46.17
2023-05-14T07:48:59.878Z,44.75
2023-05-14T07:51:46.903Z,47.47
2023-05-14T07:54:32.160Z,45.96
2023-05-14T07:57:17.494Z,47.66
2023-05-14T08:00:02.615Z,43.19
2023-05-14T08:02:49.192Z,43.30
2023-05-14T08:05:34.303Z,44.62
2023-05-14T08:08:19.227Z,45.25
2023-05-14T08:11:04.814Z,43.43
2023-05-14T08:13:49.929Z,42.65
2023-05-14T08:16:34.773Z,43.87
2023-05-14T08:19:20.143Z,42.47
2023-05-14T08:22:07.657Z,41.86
2023-05-14T08:24:52.982Z,40.85
2023-05-14T08:27:37.875Z,40.97
2023-05-14T08:30:23.567Z,42.12
2023-05-14T08:33:08.591Z,38.89
2023-05-14T08:35:53.969Z,41.69
2023-05-14T08:38:38.902Z,37.02
2023-05-14T08:41:24.151Z,38.20
2023-05-14T08:44:19.200Z,38.89
2023-05-14T08:47:05.132Z,39.32
2023-05-14T08:50:04.555Z,38.43
2023-05-14T08:52:52.233Z,37.66
2023-05-14T08:55:38.568Z,38.17
2023-05-14T08:58:26.824Z,39.65
2023-05-14T09:01:14.640Z,38.65
2023-05-14T09:04:01.461Z,39.48
2023-05-14T09:06:53.797Z,38.43
2023-05-14T09:09:39.972Z,37.16
2023-05-14T09:12:25.283Z,36.29
2023-05-14T09:15:10.908Z,36.70
2023-05-14T09:17:57.000Z,36.79
2023-05-14T09:20:42.123Z,38.12
2023-05-14T09:23:27.851Z,38.95
2023-05-14T09:26:17.072Z,37.29
2023-05-14T09:29:03.192Z,37.80
2023-05-14T09:31:52.021Z,39.78
2023-05-14T09:34:37.947Z,38.17
2023-05-14T09:37:26.268Z,36.73
2023-05-14T09:40:13.113Z,36.65
2023-05-14T09:42:58.753Z,34.95
2023-05-14T09:45:43.970Z,33.86
2023-05-14T09:48:29.931Z,34.50
2023-05-14T09:51:17.761Z,32.08
2023-05-14T09:54:04.536Z,33.04
2023-05-14T09:56:49.737Z,34.18
2023-05-14T09:59:35.864Z,33.72
2023-05-14T10:02:25.582Z,33.68
2023-05-14T10:05:12.997Z,32.11
2023-05-14T10:08:00.535Z,31.12
2023-05-14T10:10:45.832Z,33.64
2023-05-14T10:13:38.185Z,32.56
2023-05-14T10:16:34.269Z,30.64
2023-05-14T10:19:22.937Z,31.21
2023-05-14T10:22:12.659Z,29.90
2023-05-14T10:24:58.324Z,30.21
2023-05-14T10:27:43.803Z,32.12
2023-05-14T10:30:28.784Z,32.45
2023-05-14T10:33:16.419Z,31.99
2023-05-14T10:36:05.630Z,30.60
2023-05-14T10:38:56.992Z,31.82
2023-05-14T10:41:42.673Z,31.44
2023-05-14T10:44:28.023Z,31.16
2023-05-14T10:47:13.968Z,32.12
2023-05-14T10:50:02.483Z,32.37
2023-05-14T10:52:49.109Z,32.44
2023-05-14T10:55:36.008Z,32.54
2023-05-14T10:58:24.288Z,32.08
2023-05-14T11:01:10.803Z,31.52
2023-05-14T11:03:58.496Z,31.31
2023-05-14T11:06:45.251Z,32.79
2023-05-14T11:09:30.425Z,29.54
2023-05-14T11:12:17.022Z,30.54
2023-05-14T11:15:05.768Z,30.17
2023-05-14T11:17:51.692Z,30.53
2023-05-14T11:20:37.493Z,29.44
2023-05-14T11:23:25.205Z,29.16
2023-05-14T11:26:11.397Z,32.01
2023-05-14T11:28:56.255Z,30.52
2023-05-14T11:31:42.639Z,31.16
2023-05-14T11:34:29.321Z,30.50
2023-05-14T11:37:15.007Z,30.50
2023-05-14T11:40:01.329Z,29.49
2023-05-14T11:42:46.386Z,31.82
2023-05-14T11:45:33.308Z,30.29
2023-05-14T11:48:19.046Z,31.96
2023-05-14T11:51:04.549Z,32.12
2023-05-14T11:53:49.814Z,30.87
2023-05-14T11:56:35.093Z,31.73
2023-05-14T11:59:20.300Z,33.02
2023-05-14T12:02:08.354Z,33.26
2023-05-14T12:04:53.836Z,33.25
2023-05-14T12:07:39.817Z,33.31
2023-05-14T12:10:25.756Z,34.33
2023-05-14T12:13:14.816Z,32.63
2023-05-14T12:16:02.336Z,32.72
2023-05-14T12:18:49.127Z,33.00
2023-05-14T12:21:36.187Z,34.48
2023-05-14T12:24:21.350Z,33.39
2023-05-14T12:27:07.911Z,34.34
2023-05-14T12:32:55.403Z,34.76
2023-05-14T12:35:41.041Z,34.07
2023-05-14T12:38:26.178Z,32.25
2023-05-14T12:41:11.567Z,31.68
2023-05-14T12:43:59.032Z,29.50
2023-05-14T12:46:44.261Z,29.44
2023-05-14T12:49:29.409Z,28.69
2023-05-14T12:52:22.692Z,27.99
2023-05-14T12:55:18.182Z,26.15
2023-05-14T12:58:03.306Z,26.05
2023-05-14T13:00:48.171Z,26.60
2023-05-14T13:03:34.247Z,27.04
2023-05-14T13:06:29.893Z,25.47
2023-05-14T13:09:15.127Z,26.33
2023-05-14T13:12:00.623Z,25.78
2023-05-14T13:14:45.599Z,25.41
2023-05-14T13:17:30.614Z,27.34
2023-05-14T13:20:17.668Z,26.89
2023-05-14T13:23:02.831Z,27.04
2023-05-14T13:25:49.728Z,26.76
2023-05-14T13:28:35.190Z,27.40
2023-05-14T13:31:20.520Z,27.20
2023-05-14T13:34:06.028Z,26.32
2023-05-14T13:36:51.011Z,26.69
2023-05-14T13:39:36.506Z,28.15
2023-05-14T13:42:21.741Z,25.82
2023-05-14T13:45:07.655Z,26.25
2023-05-14T13:47:53.326Z,26.57
2023-05-14T13:50:38.439Z,25.79
2023-05-14T13:53:24.498Z,24.94
2023-05-14T13:56:09.536Z,24.99
2023-05-14T13:58:56.168Z,25.46
2023-05-14T14:01:43.142Z,24.59
2023-05-14T14:04:28.978Z,25.55
2023-05-14T14:07:14.162Z,25.19
2023-05-14T14:10:01.744Z,25.93
2023-05-14T14:12:46.653Z,23.56
2023-05-14T14:15:31.832Z,24.52
2023-05-14T14:18:19.271Z,25.16
2023-05-14T14:21:04.673Z,23.77
2023-05-14T14:23:49.874Z,24.22
2023-05-14T14:26:34.737Z,25.20
2023-05-14T14:29:21.751Z,25.08
2023-05-14T14:32:07.819Z,24.40
2023-05-14T14:34:56.307Z,25.13
2023-05-14T14:37:43.281Z,24.75
2023-05-14T14:40:28.512Z,24.32
2023-05-14T14:43:13.400Z,24.97
2023-05-14T14:45:59.963Z,24.59
2023-05-14T14:48:45.798Z,23.84
2023-05-14T14:51:31.255Z,22.65
2023-05-14T14:54:16.216Z,23.52
2023-05-14T14:57:01.397Z,25.22
2023-05-14T14:59:46.844Z,25.77
2023-05-14T15:02:31.907Z,26.30
2023-05-14T15:05:17.096Z,27.54
2023-05-14T15:08:02.010Z,27.87
2023-05-14T15:10:47.345Z,27.98
2023-05-14T15:13:32.755Z,27.03
2023-05-14T15:16:17.922Z,25.99
2023-05-14T15:19:02.688Z,25.27
2023-05-14T15:21:47.929Z,26.46
2023-05-14T15:24:47.142Z,26.67
2023-05-14T15:27:36.715Z,26.62
2023-05-14T15:33:27.767Z,28.54
2023-05-14T15:36:13.405Z,28.41
2023-05-14T15:38:59.576Z,29.28
2023-05-14T15:41:45.512Z,28.85
2023-05-14T15:44:30.898Z,29.48
2023-05-14T15:47:15.963Z,29.10
2023-05-14T15:50:01.084Z,27.41
2023-05-14T15:52:47.557Z,26.74
2023-05-14T15:55:34.784Z,28.20
2023-05-14T15:58:19.896Z,27.00
2023-05-14T16:01:05.629Z,28.18
2023-05-14T16:03:52.315Z,28.57
2023-05-14T16:06:41.378Z,29.04
2023-05-14T16:09:26.658Z,28.86
2023-05-14T16:12:13.621Z,29.28
2023-05-14T16:14:59.831Z,29.00
2023-05-14T16:17:44.906Z,28.70
2023-05-14T16:20:29.852Z,29.35
2023-05-14T16:23:14.653Z,27.62
2023-05-14T16:25:59.889Z,27.85
2023-05-14T16:28:45.198Z,29.07
2023-05-14T16:31:31.483Z,28.90
2023-05-14T16:34:16.638Z,28.71
2023-05-14T16:37:02.265Z,29.57
2023-05-14T16:39:47.732Z,30.85
2023-05-14T16:42:32.788Z,29.11
2023-05-14T16:45:18.063Z,28.88
2023-05-14T16:48:04.332Z,29.44
2023-05-14T16:50:49.873Z,29.77
2023-05-14T16:53:34.818Z,29.35
2023-05-14T16:56:19.613Z,29.40
2023-05-14T16:59:04.591Z,29.79
2023-05-14T17:01:50.059Z,29.85
2023-05-14T17:04:38.872Z,29.92
2023-05-14T17:07:24.638Z,29.49
2023-05-14T17:10:09.866Z,30.02
2023-05-14T17:12:55.435Z,30.39
2023-05-14T17:15:42.365Z,29.12
2023-05-14T17:18:27.715Z,29.55
2023-05-14T17:21:13.702Z,29.67
2023-05-14T17:23:59.491Z,30.20
2023-05-14T17:26:45.070Z,30.54
2023-05-14T17:29:29.977Z,31.75
2023-05-14T17:32:15.331Z,31.98
2023-05-14T17:35:00.723Z,31.88
2023-05-14T17:37:45.811Z,32.21
2023-05-14T17:40:30.802Z,31.46
2023-05-14T17:43:15.788Z,31.47
2023-05-14T17:46:01.205Z,31.78
2023-05-14T17:48:47.425Z,32.39
2023-05-14T17:51:32.386Z,31.94
2023-05-14T17:54:25.120Z,31.76
2023-05-14T17:57:10.652Z,31.93
2023-05-14T17:59:55.893Z,32.28
2023-05-14T18:02:42.198Z,33.00
2023-05-14T18:05:28.944Z,31.95
2023-05-14T18:08:17.328Z,32.80
2023-05-14T18:11:02.420Z,32.56
2023-05-14T18:13:47.381Z,32.38
2023-05-14T18:16:32.399Z,32.54
2023-05-14T18:19:19.376Z,31.80
2023-05-14T18:22:04.678Z,32.00
2023-05-14T18:24:49.753Z,32.67
2023-05-14T18:27:35.031Z,33.25
2023-05-14T18:30:20.034Z,33.36
2023-05-14T18:33:07.998Z,33.90
2023-05-14T18:35:54.550Z,34.56
2023-05-14T18:38:41.175Z,34.32
2023-05-14T18:41:26.667Z,34.80
2023-05-14T18:44:11.720Z,35.59
2023-05-14T18:46:57.115Z,34.32
2023-05-14T18:49:43.230Z,35.70
2023-05-14T18:52:31.959Z,35.88
2023-05-14T18:55:17.172Z,36.99
2023-05-14T18:58:03.669Z,37.12
2023-05-14T19:00:48.567Z,37.42
2023-05-14T19:03:38.583Z,37.79
2023-05-14T19:06:25.895Z,36.71
2023-05-14T19:09:10.885Z,38.62
2023-05-14T19:11:55.811Z,38.81
2023-05-14T19:14:43.760Z,38.94
2023-05-14T19:17:32.677Z,39.02
2023-05-14T19:20:17.916Z,40.68
2023-05-14T19:23:03.157Z,39.50
2023-05-14T19:25:50.343Z,39.34
2023-05-14T19:28:37.813Z,40.73
2023-05-14T19:31:25.134Z,39.11
2023-05-14T19:34:10.390Z,40.54
2023-05-14T19:36:57.623Z,41.41
2023-05-14T19:39:46.317Z,40.64
2023-05-14T19:42:31.934Z,40.13
2023-05-14T19:45:20.304Z,43.35
2023-05-14T19:48:06.390Z,41.70
2023-05-14T19:50:52.711Z,41.84
2023-05-14T19:53:44.396Z,43.93
2023-05-14T19:56:30.651Z,43.21
2023-05-14T19:59:15.942Z,43.29
2023-05-14T20:02:01.718Z,42.95
2023-05-14T20:04:47.559Z,42.31
2023-05-14T20:07:33.306Z,41.62
2023-05-14T20:10:21.798Z,43.83
2023-05-14T20:13:10.156Z,43.46
2023-05-14T20:15:55.842Z,42.54
2023-05-14T20:18:43.483Z,43.32
2023-05-14T20:21:29.973Z,43.43
2023-05-14T20:24:16.264Z,45.75
2023-05-14T20:27:01.909Z,44.37
2023-05-14T20:29:46.987Z,44.63
2023-05-14T20:32:33.294Z,45.96
2023-05-14T20:35:19.021Z,44.28
2023-05-14T20:38:04.097Z,45.16
2023-05-14T20:40:49.297Z,43.28
2023-05-14T20:43:34.246Z,44.49
2023-05-14T20:46:21.357Z,45.61
2023-05-14T20:49:06.315Z,46.56
2023-05-14T20:51:51.210Z,47.16
2023-05-14T20:54:36.734Z,48.45
2023-05-14T20:57:24.756Z,47.98
2023-05-14T21:00:12.417Z,47.02
2023-05-14T21:02:59.916Z,47.89
2023-05-14T21:05:45.093Z,47.91
2023-05-14T21:08:33.037Z,47.16
2023-05-14T21:11:18.723Z,46.92
2023-05-14T21:14:04.679Z,47.15
2023-05-14T21:16:50.076Z,48.42
2023-05-14T21:19:34.840Z,45.94
2023-05-14T21:22:22.498Z,46.19
2023-05-14T21:25:07.532Z,45.15
2023-05-14T21:27:52.662Z,46.90
2023-05-14T21:30:37.596Z,45.38
2023-05-14T21:33:23.945Z,45.66
2023-05-14T21:36:09.708Z,46.95
2023-05-14T21:38:55.092Z,48.97
2023-05-14T21:41:40.889Z,49.31
2023-05-14T21:44:26.003Z,48.29
2023-05-14T21:47:11.367Z,48.52
2023-05-14T21:49:56.339Z,46.79
2023-05-14T21:52:41.483Z,47.26
2023-05-14T21:55:27.680Z,47.96
2023-05-14T21:58:12.905Z,47.94
2023-05-14T22:00:59.843Z,48.56
2023-05-14T22:03:44.976Z,47.29
2023-05-14T22:06:30.827Z,47.61
2023-05-14T22:09:15.840Z,48.43
2023-05-14T22:12:03.061Z,48.51
2023-05-14T22:14:47.889Z,48.73
2023-05-14T22:17:34.892Z,49.83
2023-05-14T22:20:19.753Z,49.81
2023-05-14T22:23:04.945Z,50.75
2023-05-14T22:25:49.753Z,51.91
2023-05-14T22:28:34.622Z,50.38
2023-05-14T22:31:19.912Z,50.56
2023-05-14T22:34:05.282Z,51.63
2023-05-14T22:36:50.209Z,50.32
2023-05-14T22:39:35.027Z,51.37
2023-05-14T22:42:20.630Z,50.90
2023-05-14T22:45:05.955Z,51.03
2023-05-14T22:47:51.380Z,51.43
2023-05-14T22:50:37.029Z,50.77
2023-05-14T22:53:21.878Z,51.71
2023-05-14T22:56:07.055Z,52.63
2023-05-14T22:58:52.133Z,52.62
2023-05-14T23:01:37.510Z,52.72
2023-05-14T23:04:23.002Z,50.59
2023-05-14T23:07:07.934Z,50.98
2023-05-14T23:09:53.091Z,50.16
2023-05-14T23:12:37.900Z,51.20
2023-05-14T23:15:22.816Z,52.38
2023-05-14T23:18:08.592Z,50.62
2023-05-14T23:20:53.425Z,52.89
2023-05-14T23:23:38.609Z,52.48
2023-05-14T23:26:23.614Z,53.18
2023-05-14T23:29:09.318Z,50.64
2023-05-14T23:31:54.002Z,50.96
2023-05-14T23:34:39.284Z,51.95
2023-05-14T23:37:24.407Z,51.91
2023-05-14T23:40:09.992Z,54.08
2023-05-14T23:42:54.712Z,53.46
2023-05-14T23:45:39.952Z,51.94
2023-05-14T23:48:25.676Z,52.16
2023-05-14T23:51:10.438Z,53.67
2023-05-14T23:53:58.817Z,52.92
2023-05-14T23:56:44.309Z,54.55
2023-05-14T23:59:29.876Z,53.96
